sensor_id;sensor_type;location;lat;lon;timestamp;temperature;humidity
23385;DHT22;11865;45.394;10.978;2023-02-03T00:01:24;2.80;99.90
23385;DHT22;11865;45.394;10.978;2023-02-03T00:03:51;2.90;99.90
23385;DHT22;11865;45.394;10.978;2023-02-03T00:06:19;2.90;99.90
23385;DHT22;11865;45.394;10.978;2023-02-03T00:08:46;2.60;99.90
23385;DHT22;11865;45.394;10.978;2023-02-03T00:11:14;2.50;99.90
23385;DHT22;11865;45.394;10.978;2023-02-03T00:13:42;2.60;99.90
23385;DHT22;11865;45.394;10.978;2023-02-03T00:16:09;2.50;99.90
23385;DHT22;11865;45.394;10.978;2023-02-03T00:18:37;2.90;99.90
23385;DHT22;11865;45.394;10.978;2023-02-03T00:21:05;3.00;99.90
23385;DHT22;11865;45.394;10.978;2023-02-03T00:23:33;3.20;99.90
23385;DHT22;11865;45.394;10.978;2023-02-03T00:26:11;3.00;99.90
23385;DHT22;11865;45.394;10.978;2023-02-03T00:28:42;2.80;99.90
23385;DHT22;11865;45.394;10.978;2023-02-03T00:31:19;2.40;99.90
23385;DHT22;11865;45.394;10.978;2023-02-03T00:33:47;2.10;99.90
23385;DHT22;11865;45.394;10.978;2023-02-03T00:36:19;1.90;99.90
23385;DHT22;11865;45.394;10.978;2023-02-03T00:38:46;1.90;99.90
23385;DHT22;11865;45.394;10.978;2023-02-03T00:41:17;2.00;99.90
23385;DHT22;11865;45.394;10.978;2023-02-03T00:43:45;2.10;99.90
23385;DHT22;11865;45.394;10.978;2023-02-03T00:46:13;2.00;99.90
23385;DHT22;11865;45.394;10.978;2023-02-03T00:48:41;1.90;99.90
23385;DHT22;11865;45.394;10.978;2023-02-03T00:51:08;1.70;99.90
23385;DHT22;11865;45.394;10.978;2023-02-03T00:53:36;2.00;99.90
23385;DHT22;11865;45.394;10.978;2023-02-03T00:56:04;2.20;99.90
23385;DHT22;11865;45.394;10.978;2023-02-03T00:58:39;2.40;99.90
23385;DHT22;11865;45.394;10.978;2023-02-03T01:01:07;2.20;99.90
23385;DHT22;11865;45.394;10.978;2023-02-03T01:03:35;2.30;99.90
23385;DHT22;11865;45.394;10.978;2023-02-03T01:06:16;2.50;99.90
23385;DHT22;11865;45.394;10.978;2023-02-03T01:08:44;2.70;99.90
23385;DHT22;11865;45.394;10.978;2023-02-03T01:11:15;2.50;99.90
23385;DHT22;11865;45.394;10.978;2023-02-03T01:13:43;2.40;99.90
23385;DHT22;11865;45.394;10.978;2023-02-03T01:16:13;2.40;99.90
23385;DHT22;11865;45.394;10.978;2023-02-03T01:18:42;2.30;99.90
23385;DHT22;11865;45.394;10.978;2023-02-03T01:21:13;2.30;99.90
23385;DHT22;11865;45.394;10.978;2023-02-03T01:23:41;2.30;99.90
23385;DHT22;11865;45.394;10.978;2023-02-03T01:26:14;2.00;99.90
23385;DHT22;11865;45.394;10.978;2023-02-03T01:28:42;2.20;99.90
23385;DHT22;11865;45.394;10.978;2023-02-03T01:31:16;2.20;99.90
23385;DHT22;11865;45.394;10.978;2023-02-03T01:33:44;1.70;99.90
23385;DHT22;11865;45.394;10.978;2023-02-03T01:36:14;1.80;99.90
23385;DHT22;11865;45.394;10.978;2023-02-03T01:38:43;1.80;99.90
23385;DHT22;11865;45.394;10.978;2023-02-03T01:41:14;2.00;99.90
23385;DHT22;11865;45.394;10.978;2023-02-03T01:43:46;2.00;99.90
23385;DHT22;11865;45.394;10.978;2023-02-03T01:48:45;2.30;99.90
23385;DHT22;11865;45.394;10.978;2023-02-03T01:51:12;2.60;99.90
23385;DHT22;11865;45.394;10.978;2023-02-03T01:53:40;2.80;99.90
23385;DHT22;11865;45.394;10.978;2023-02-03T01:56:09;2.40;99.90
23385;DHT22;11865;45.394;10.978;2023-02-03T01:58:38;2.60;99.90
23385;DHT22;11865;45.394;10.978;2023-02-03T02:01:07;2.70;99.90
23385;DHT22;11865;45.394;10.978;2023-02-03T02:03:48;2.40;99.90
23385;DHT22;11865;45.394;10.978;2023-02-03T02:06:16;2.50;99.90
23385;DHT22;11865;45.394;10.978;2023-02-03T02:08:46;2.30;99.90
23385;DHT22;11865;45.394;10.978;2023-02-03T02:11:14;2.40;99.90
23385;DHT22;11865;45.394;10.978;2023-02-03T02:13:43;1.80;99.90
23385;DHT22;11865;45.394;10.978;2023-02-03T02:22:13;2.00;99.90
23385;DHT22;11865;45.394;10.978;2023-02-03T02:25:13;2.00;99.90
23385;DHT22;11865;45.394;10.978;2023-02-03T02:41:38;1.80;99.90
23385;DHT22;11865;45.394;10.978;2023-02-03T02:49:18;1.40;99.90
23385;DHT22;11865;45.394;10.978;2023-02-03T02:51:49;1.40;99.90
23385;DHT22;11865;45.394;10.978;2023-02-03T02:54:21;1.50;99.90
23385;DHT22;11865;45.394;10.978;2023-02-03T02:56:53;1.60;99.90
23385;DHT22;11865;45.394;10.978;2023-02-03T02:59:23;1.50;99.90
23385;DHT22;11865;45.394;10.978;2023-02-03T03:01:50;1.30;99.90
23385;DHT22;11865;45.394;10.978;2023-02-03T03:04:22;1.40;99.90
23385;DHT22;11865;45.394;10.978;2023-02-03T03:07:06;1.60;99.90
23385;DHT22;11865;45.394;10.978;2023-02-03T03:09:41;1.80;99.90
23385;DHT22;11865;45.394;10.978;2023-02-03T03:12:12;1.80;99.90
23385;DHT22;11865;45.394;10.978;2023-02-03T03:14:45;2.00;99.90
23385;DHT22;11865;45.394;10.978;2023-02-03T03:17:20;2.10;99.90
23385;DHT22;11865;45.394;10.978;2023-02-03T03:19:53;2.20;99.90
23385;DHT22;11865;45.394;10.978;2023-02-03T03:22:29;2.20;99.90
23385;DHT22;11865;45.394;10.978;2023-02-03T03:25:20;2.30;99.90
23385;DHT22;11865;45.394;10.978;2023-02-03T03:27:51;2.40;99.90
23385;DHT22;11865;45.394;10.978;2023-02-03T03:30:32;2.40;99.90
23385;DHT22;11865;45.394;10.978;2023-02-03T03:33:02;2.40;99.90
23385;DHT22;11865;45.394;10.978;2023-02-03T03:35:45;2.30;99.90
23385;DHT22;11865;45.394;10.978;2023-02-03T03:38:29;2.10;99.90
23385;DHT22;11865;45.394;10.978;2023-02-03T03:41:19;2.00;99.90
23385;DHT22;11865;45.394;10.978;2023-02-03T03:43:49;1.80;99.90
23385;DHT22;11865;45.394;10.978;2023-02-03T03:46:26;1.70;99.90
23385;DHT22;11865;45.394;10.978;2023-02-03T03:48:58;1.30;99.90
23385;DHT22;11865;45.394;10.978;2023-02-03T03:51:33;1.50;99.90
23385;DHT22;11865;45.394;10.978;2023-02-03T03:54:07;2.00;99.90
23385;DHT22;11865;45.394;10.978;2023-02-03T03:59:21;2.20;99.90
23385;DHT22;11865;45.394;10.978;2023-02-03T04:01:50;2.40;99.90
23385;DHT22;11865;45.394;10.978;2023-02-03T04:04:19;2.50;99.90
23385;DHT22;11865;45.394;10.978;2023-02-03T04:06:47;2.50;99.90
23385;DHT22;11865;45.394;10.978;2023-02-03T04:09:15;2.50;99.90
23385;DHT22;11865;45.394;10.978;2023-02-03T04:11:43;2.50;99.90
23385;DHT22;11865;45.394;10.978;2023-02-03T04:14:33;2.50;99.90
23385;DHT22;11865;45.394;10.978;2023-02-03T04:17:01;2.30;99.90
23385;DHT22;11865;45.394;10.978;2023-02-03T04:19:28;2.10;99.90
23385;DHT22;11865;45.394;10.978;2023-02-03T04:21:56;1.90;99.90
23385;DHT22;11865;45.394;10.978;2023-02-03T04:24:24;1.60;99.90
23385;DHT22;11865;45.394;10.978;2023-02-03T04:26:51;1.20;99.90
23385;DHT22;11865;45.394;10.978;2023-02-03T04:29:19;1.40;99.90
23385;DHT22;11865;45.394;10.978;2023-02-03T04:31:46;1.40;99.90
23385;DHT22;11865;45.394;10.978;2023-02-03T04:34:14;1.20;99.90
23385;DHT22;11865;45.394;10.978;2023-02-03T04:36:41;1.10;99.90
23385;DHT22;11865;45.394;10.978;2023-02-03T04:39:09;1.10;99.90
23385;DHT22;11865;45.394;10.978;2023-02-03T04:41:37;0.90;99.90
23385;DHT22;11865;45.394;10.978;2023-02-03T04:44:05;0.80;99.90
23385;DHT22;11865;45.394;10.978;2023-02-03T04:46:32;0.90;99.90
23385;DHT22;11865;45.394;10.978;2023-02-03T04:48:59;0.80;99.90
23385;DHT22;11865;45.394;10.978;2023-02-03T04:51:27;0.90;99.90
23385;DHT22;11865;45.394;10.978;2023-02-03T04:53:54;1.10;99.90
23385;DHT22;11865;45.394;10.978;2023-02-03T04:56:22;1.10;99.90
23385;DHT22;11865;45.394;10.978;2023-02-03T04:58:49;1.70;99.90
23385;DHT22;11865;45.394;10.978;2023-02-03T05:01:17;2.10;99.90
23385;DHT22;11865;45.394;10.978;2023-02-03T05:03:45;2.40;99.90
23385;DHT22;11865;45.394;10.978;2023-02-03T05:06:12;2.60;99.90
23385;DHT22;11865;45.394;10.978;2023-02-03T05:08:40;2.10;99.90
23385;DHT22;11865;45.394;10.978;2023-02-03T05:11:07;1.80;99.90
23385;DHT22;11865;45.394;10.978;2023-02-03T05:13:34;1.40;99.90
23385;DHT22;11865;45.394;10.978;2023-02-03T05:16:02;1.40;99.90
23385;DHT22;11865;45.394;10.978;2023-02-03T05:18:30;1.20;99.90
23385;DHT22;11865;45.394;10.978;2023-02-03T05:20:57;1.10;99.90
23385;DHT22;11865;45.394;10.978;2023-02-03T05:23:25;1.10;99.90
23385;DHT22;11865;45.394;10.978;2023-02-03T05:25:52;1.00;99.90
23385;DHT22;11865;45.394;10.978;2023-02-03T05:28:20;1.10;99.90
23385;DHT22;11865;45.394;10.978;2023-02-03T05:30:47;0.90;99.90
23385;DHT22;11865;45.394;10.978;2023-02-03T05:33:15;0.70;99.90
23385;DHT22;11865;45.394;10.978;2023-02-03T05:35:43;0.70;99.90
23385;DHT22;11865;45.394;10.978;2023-02-03T05:38:10;0.80;99.90
23385;DHT22;11865;45.394;10.978;2023-02-03T05:40:38;0.90;99.90
23385;DHT22;11865;45.394;10.978;2023-02-03T05:43:35;0.90;99.90
23385;DHT22;11865;45.394;10.978;2023-02-03T05:46:04;1.00;99.90
23385;DHT22;11865;45.394;10.978;2023-02-03T05:48:33;1.00;99.90
23385;DHT22;11865;45.394;10.978;2023-02-03T05:51:01;0.90;99.90
23385;DHT22;11865;45.394;10.978;2023-02-03T05:53:28;0.80;99.90
23385;DHT22;11865;45.394;10.978;2023-02-03T05:55:56;0.80;99.90
23385;DHT22;11865;45.394;10.978;2023-02-03T05:58:24;0.80;99.90
23385;DHT22;11865;45.394;10.978;2023-02-03T06:00:51;0.70;99.90
23385;DHT22;11865;45.394;10.978;2023-02-03T06:03:19;0.80;99.90
23385;DHT22;11865;45.394;10.978;2023-02-03T06:05:46;1.10;99.90
23385;DHT22;11865;45.394;10.978;2023-02-03T06:08:14;1.00;99.90
23385;DHT22;11865;45.394;10.978;2023-02-03T06:10:41;1.20;99.90
23385;DHT22;11865;45.394;10.978;2023-02-03T06:13:15;0.90;99.90
23385;DHT22;11865;45.394;10.978;2023-02-03T06:15:42;0.80;99.90
23385;DHT22;11865;45.394;10.978;2023-02-03T06:18:11;0.90;99.90
23385;DHT22;11865;45.394;10.978;2023-02-03T06:20:38;1.00;99.90
23385;DHT22;11865;45.394;10.978;2023-02-03T06:23:06;0.90;99.90
23385;DHT22;11865;45.394;10.978;2023-02-03T06:25:33;1.10;99.90
23385;DHT22;11865;45.394;10.978;2023-02-03T06:28:01;1.10;99.90
23385;DHT22;11865;45.394;10.978;2023-02-03T06:30:29;1.20;99.90
23385;DHT22;11865;45.394;10.978;2023-02-03T06:32:57;1.30;99.90
23385;DHT22;11865;45.394;10.978;2023-02-03T06:35:24;1.40;99.90
23385;DHT22;11865;45.394;10.978;2023-02-03T06:37:52;1.40;99.90
23385;DHT22;11865;45.394;10.978;2023-02-03T06:40:20;1.50;99.90
23385;DHT22;11865;45.394;10.978;2023-02-03T06:42:47;1.50;99.90
23385;DHT22;11865;45.394;10.978;2023-02-03T06:45:15;1.70;99.90
23385;DHT22;11865;45.394;10.978;2023-02-03T06:47:44;1.80;99.90
23385;DHT22;11865;45.394;10.978;2023-02-03T06:50:13;1.80;99.90
23385;DHT22;11865;45.394;10.978;2023-02-03T06:52:41;2.00;99.90
23385;DHT22;11865;45.394;10.978;2023-02-03T06:55:09;2.10;99.90
23385;DHT22;11865;45.394;10.978;2023-02-03T06:57:45;2.30;99.90
23385;DHT22;11865;45.394;10.978;2023-02-03T07:00:15;2.50;99.90
23385;DHT22;11865;45.394;10.978;2023-02-03T07:02:56;2.70;99.90
23385;DHT22;11865;45.394;10.978;2023-02-03T07:05:25;2.60;99.90
23385;DHT22;11865;45.394;10.978;2023-02-03T07:07:54;2.50;99.90
23385;DHT22;11865;45.394;10.978;2023-02-03T07:10:22;2.60;99.90
23385;DHT22;11865;45.394;10.978;2023-02-03T07:12:49;2.80;99.90
23385;DHT22;11865;45.394;10.978;2023-02-03T07:15:18;2.70;99.90
23385;DHT22;11865;45.394;10.978;2023-02-03T07:17:47;2.80;99.90
23385;DHT22;11865;45.394;10.978;2023-02-03T07:20:22;2.80;99.90
23385;DHT22;11865;45.394;10.978;2023-02-03T07:22:56;3.00;99.90
23385;DHT22;11865;45.394;10.978;2023-02-03T07:25:24;3.00;99.90
23385;DHT22;11865;45.394;10.978;2023-02-03T07:27:52;3.00;99.90
23385;DHT22;11865;45.394;10.978;2023-02-03T07:30:20;3.10;99.90
23385;DHT22;11865;45.394;10.978;2023-02-03T07:32:49;3.00;99.90
23385;DHT22;11865;45.394;10.978;2023-02-03T07:35:17;2.90;99.90
23385;DHT22;11865;45.394;10.978;2023-02-03T07:37:45;3.00;99.90
23385;DHT22;11865;45.394;10.978;2023-02-03T07:40:13;3.00;99.90
23385;DHT22;11865;45.394;10.978;2023-02-03T07:42:42;3.00;99.90
23385;DHT22;11865;45.394;10.978;2023-02-03T07:45:11;3.00;99.90
23385;DHT22;11865;45.394;10.978;2023-02-03T07:47:40;3.10;99.90
23385;DHT22;11865;45.394;10.978;2023-02-03T07:50:09;3.10;99.90
23385;DHT22;11865;45.394;10.978;2023-02-03T07:52:37;3.20;99.90
23385;DHT22;11865;45.394;10.978;2023-02-03T07:55:06;3.20;99.90
23385;DHT22;11865;45.394;10.978;2023-02-03T07:57:33;3.20;99.90
23385;DHT22;11865;45.394;10.978;2023-02-03T08:00:02;3.00;99.90
23385;DHT22;11865;45.394;10.978;2023-02-03T08:02:38;3.10;99.90
23385;DHT22;11865;45.394;10.978;2023-02-03T08:05:06;3.20;99.90
23385;DHT22;11865;45.394;10.978;2023-02-03T08:07:34;3.20;99.90
23385;DHT22;11865;45.394;10.978;2023-02-03T08:10:02;3.20;99.90
23385;DHT22;11865;45.394;10.978;2023-02-03T08:12:29;3.20;99.90
23385;DHT22;11865;45.394;10.978;2023-02-03T08:14:57;3.30;99.90
23385;DHT22;11865;45.394;10.978;2023-02-03T08:17:25;3.40;99.90
23385;DHT22;11865;45.394;10.978;2023-02-03T08:19:52;3.40;99.90
23385;DHT22;11865;45.394;10.978;2023-02-03T08:22:20;3.30;99.90
23385;DHT22;11865;45.394;10.978;2023-02-03T08:24:48;3.50;99.90
23385;DHT22;11865;45.394;10.978;2023-02-03T08:27:19;3.70;99.90
23385;DHT22;11865;45.394;10.978;2023-02-03T08:29:48;3.70;99.90
23385;DHT22;11865;45.394;10.978;2023-02-03T08:32:17;3.70;99.90
23385;DHT22;11865;45.394;10.978;2023-02-03T08:34:46;3.90;99.90
23385;DHT22;11865;45.394;10.978;2023-02-03T08:37:16;3.70;99.90
23385;DHT22;11865;45.394;10.978;2023-02-03T08:39:45;3.80;99.90
23385;DHT22;11865;45.394;10.978;2023-02-03T08:42:13;3.70;99.90
23385;DHT22;11865;45.394;10.978;2023-02-03T08:44:41;3.80;99.90
23385;DHT22;11865;45.394;10.978;2023-02-03T08:47:10;3.70;99.90
23385;DHT22;11865;45.394;10.978;2023-02-03T08:49:38;3.80;99.90
23385;DHT22;11865;45.394;10.978;2023-02-03T08:52:07;3.90;99.90
23385;DHT22;11865;45.394;10.978;2023-02-03T08:54:35;4.10;99.90
23385;DHT22;11865;45.394;10.978;2023-02-03T08:57:03;4.10;99.90
23385;DHT22;11865;45.394;10.978;2023-02-03T08:59:30;4.00;99.90
23385;DHT22;11865;45.394;10.978;2023-02-03T09:01:58;4.00;99.90
23385;DHT22;11865;45.394;10.978;2023-02-03T09:04:26;4.10;99.90
23385;DHT22;11865;45.394;10.978;2023-02-03T09:06:54;4.00;99.90
23385;DHT22;11865;45.394;10.978;2023-02-03T09:09:22;4.00;99.90
23385;DHT22;11865;45.394;10.978;2023-02-03T09:11:49;4.00;99.90
23385;DHT22;11865;45.394;10.978;2023-02-03T09:14:17;4.10;99.90
23385;DHT22;11865;45.394;10.978;2023-02-03T09:16:44;4.20;99.90
23385;DHT22;11865;45.394;10.978;2023-02-03T09:19:12;4.50;99.90
23385;DHT22;11865;45.394;10.978;2023-02-03T09:21:39;4.50;99.90
23385;DHT22;11865;45.394;10.978;2023-02-03T09:24:14;4.60;99.90
23385;DHT22;11865;45.394;10.978;2023-02-03T09:26:42;4.80;99.90
23385;DHT22;11865;45.394;10.978;2023-02-03T09:29:10;4.80;99.90
23385;DHT22;11865;45.394;10.978;2023-02-03T09:31:38;4.80;99.90
23385;DHT22;11865;45.394;10.978;2023-02-03T09:34:06;4.70;99.90
23385;DHT22;11865;45.394;10.978;2023-02-03T09:36:33;4.70;99.90
23385;DHT22;11865;45.394;10.978;2023-02-03T09:39:01;5.10;99.90
23385;DHT22;11865;45.394;10.978;2023-02-03T09:44:16;5.00;99.90
23385;DHT22;11865;45.394;10.978;2023-02-03T09:47:02;5.30;99.90
23385;DHT22;11865;45.394;10.978;2023-02-03T09:52:23;5.40;99.90
23385;DHT22;11865;45.394;10.978;2023-02-03T09:54:59;5.50;99.90
23385;DHT22;11865;45.394;10.978;2023-02-03T09:57:30;5.60;99.90
23385;DHT22;11865;45.394;10.978;2023-02-03T10:00:02;6.00;99.90
23385;DHT22;11865;45.394;10.978;2023-02-03T10:02:45;6.30;99.90
23385;DHT22;11865;45.394;10.978;2023-02-03T10:13:59;6.20;99.90
23385;DHT22;11865;45.394;10.978;2023-02-03T10:19:16;6.20;99.90
23385;DHT22;11865;45.394;10.978;2023-02-03T10:21:51;6.00;99.90
23385;DHT22;11865;45.394;10.978;2023-02-03T10:26:53;6.20;99.90
23385;DHT22;11865;45.394;10.978;2023-02-03T10:29:35;6.30;99.90
23385;DHT22;11865;45.394;10.978;2023-02-03T10:32:11;6.20;99.90
23385;DHT22;11865;45.394;10.978;2023-02-03T10:34:41;6.50;99.90
23385;DHT22;11865;45.394;10.978;2023-02-03T10:39:49;6.10;99.90
23385;DHT22;11865;45.394;10.978;2023-02-03T10:42:17;6.10;99.90
23385;DHT22;11865;45.394;10.978;2023-02-03T10:44:55;6.20;99.90
23385;DHT22;11865;45.394;10.978;2023-02-03T10:47:24;6.40;99.90
23385;DHT22;11865;45.394;10.978;2023-02-03T10:49:55;6.30;99.90
23385;DHT22;11865;45.394;10.978;2023-02-03T10:52:30;6.30;99.90
23385;DHT22;11865;45.394;10.978;2023-02-03T10:54:58;6.20;99.90
23385;DHT22;11865;45.394;10.978;2023-02-03T10:57:28;6.50;99.90
23385;DHT22;11865;45.394;10.978;2023-02-03T11:00:06;6.50;99.90
23385;DHT22;11865;45.394;10.978;2023-02-03T11:02:33;6.60;99.90
23385;DHT22;11865;45.394;10.978;2023-02-03T11:05:19;6.50;99.90
23385;DHT22;11865;45.394;10.978;2023-02-03T11:07:47;6.10;99.90
23385;DHT22;11865;45.394;10.978;2023-02-03T11:10:33;6.20;99.90
23385;DHT22;11865;45.394;10.978;2023-02-03T11:13:12;6.40;99.90
23385;DHT22;11865;45.394;10.978;2023-02-03T11:18:51;6.20;99.90
23385;DHT22;11865;45.394;10.978;2023-02-03T11:21:31;6.30;99.90
23385;DHT22;11865;45.394;10.978;2023-02-03T11:26:36;6.30;99.90
23385;DHT22;11865;45.394;10.978;2023-02-03T11:29:13;6.40;99.90
23385;DHT22;11865;45.394;10.978;2023-02-03T11:31:46;6.50;99.90
23385;DHT22;11865;45.394;10.978;2023-02-03T11:34:17;6.40;99.90
23385;DHT22;11865;45.394;10.978;2023-02-03T11:36:45;6.30;99.90
23385;DHT22;11865;45.394;10.978;2023-02-03T11:39:28;6.30;99.90
23385;DHT22;11865;45.394;10.978;2023-02-03T11:41:56;6.40;99.90
23385;DHT22;11865;45.394;10.978;2023-02-03T11:44:26;6.50;99.90
23385;DHT22;11865;45.394;10.978;2023-02-03T11:46:56;6.70;99.90
23385;DHT22;11865;45.394;10.978;2023-02-03T12:10:06;7.40;99.90
23385;DHT22;11865;45.394;10.978;2023-02-03T12:13:22;7.70;99.90
23385;DHT22;11865;45.394;10.978;2023-02-03T12:24:11;8.10;99.90
23385;DHT22;11865;45.394;10.978;2023-02-03T12:27:19;8.50;99.90
23385;DHT22;11865;45.394;10.978;2023-02-03T12:29:59;8.60;99.90
23385;DHT22;11865;45.394;10.978;2023-02-03T12:32:33;8.80;99.90
23385;DHT22;11865;45.394;10.978;2023-02-03T12:35:42;8.80;99.90
23385;DHT22;11865;45.394;10.978;2023-02-03T12:38:18;8.90;99.90
23385;DHT22;11865;45.394;10.978;2023-02-03T12:41:00;9.00;99.90
23385;DHT22;11865;45.394;10.978;2023-02-03T12:43:34;9.10;99.90
23385;DHT22;11865;45.394;10.978;2023-02-03T12:46:18;9.00;99.90
23385;DHT22;11865;45.394;10.978;2023-02-03T12:49:04;9.00;99.90
23385;DHT22;11865;45.394;10.978;2023-02-03T12:51:46;9.10;99.90
23385;DHT22;11865;45.394;10.978;2023-02-03T12:57:15;9.30;99.90
23385;DHT22;11865;45.394;10.978;2023-02-03T13:00:00;9.20;99.90
23385;DHT22;11865;45.394;10.978;2023-02-03T13:02:41;9.30;99.90
23385;DHT22;11865;45.394;10.978;2023-02-03T13:05:21;9.30;99.90
23385;DHT22;11865;45.394;10.978;2023-02-03T13:10:52;9.50;99.90
23385;DHT22;11865;45.394;10.978;2023-02-03T13:13:32;9.70;99.90
23385;DHT22;11865;45.394;10.978;2023-02-03T13:16:05;9.70;99.90
23385;DHT22;11865;45.394;10.978;2023-02-03T13:18:40;9.60;99.90
23385;DHT22;11865;45.394;10.978;2023-02-03T13:21:11;9.60;99.90
23385;DHT22;11865;45.394;10.978;2023-02-03T13:23:42;9.60;99.90
23385;DHT22;11865;45.394;10.978;2023-02-03T13:35:10;9.50;99.90
23385;DHT22;11865;45.394;10.978;2023-02-03T13:42:38;9.70;99.90
23385;DHT22;11865;45.394;10.978;2023-02-03T13:47:50;9.70;99.90
23385;DHT22;11865;45.394;10.978;2023-02-03T13:50:28;9.80;99.90
23385;DHT22;11865;45.394;10.978;2023-02-03T13:55:37;9.70;99.90
23385;DHT22;11865;45.394;10.978;2023-02-03T13:58:17;9.70;99.90
23385;DHT22;11865;45.394;10.978;2023-02-03T14:05:45;10.00;99.90
23385;DHT22;11865;45.394;10.978;2023-02-03T14:16:41;10.30;99.90
23385;DHT22;11865;45.394;10.978;2023-02-03T14:19:52;10.30;99.90
23385;DHT22;11865;45.394;10.978;2023-02-03T14:22:03;10.40;99.90
23385;DHT22;11865;45.394;10.978;2023-02-03T14:27:15;10.30;99.90
23385;DHT22;11865;45.394;10.978;2023-02-03T14:29:43;10.30;99.90
23385;DHT22;11865;45.394;10.978;2023-02-03T14:32:12;10.20;99.90
23385;DHT22;11865;45.394;10.978;2023-02-03T14:37:24;10.00;99.90
23385;DHT22;11865;45.394;10.978;2023-02-03T14:39:59;10.10;99.90
23385;DHT22;11865;45.394;10.978;2023-02-03T14:45:26;10.10;99.90
23385;DHT22;11865;45.394;10.978;2023-02-03T14:51:06;10.30;99.90
23385;DHT22;11865;45.394;10.978;2023-02-03T14:57:30;10.50;99.90
23385;DHT22;11865;45.394;10.978;2023-02-03T15:04:46;10.10;99.90
23385;DHT22;11865;45.394;10.978;2023-02-03T15:07:45;9.80;99.90
23385;DHT22;11865;45.394;10.978;2023-02-03T15:10:39;9.60;99.90
23385;DHT22;11865;45.394;10.978;2023-02-03T15:13:28;9.30;99.90
23385;DHT22;11865;45.394;10.978;2023-02-03T15:15:59;9.10;99.90
23385;DHT22;11865;45.394;10.978;2023-02-03T15:18:36;8.90;99.90
23385;DHT22;11865;45.394;10.978;2023-02-03T15:21:04;8.70;99.90
23385;DHT22;11865;45.394;10.978;2023-02-03T15:23:40;8.60;99.90
23385;DHT22;11865;45.394;10.978;2023-02-03T15:26:21;8.50;99.90
23385;DHT22;11865;45.394;10.978;2023-02-03T15:31:29;8.20;99.90
23385;DHT22;11865;45.394;10.978;2023-02-03T15:34:08;8.10;99.90
23385;DHT22;11865;45.394;10.978;2023-02-03T15:36:48;7.90;99.90
23385;DHT22;11865;45.394;10.978;2023-02-03T15:41:46;7.70;99.90
23385;DHT22;11865;45.394;10.978;2023-02-03T15:44:39;7.60;99.90
23385;DHT22;11865;45.394;10.978;2023-02-03T15:47:32;7.70;99.90
23385;DHT22;11865;45.394;10.978;2023-02-03T15:52:40;7.40;99.90
23385;DHT22;11865;45.394;10.978;2023-02-03T15:55:33;7.40;99.90
23385;DHT22;11865;45.394;10.978;2023-02-03T15:58:02;7.40;99.90
23385;DHT22;11865;45.394;10.978;2023-02-03T16:00:38;7.20;99.90
23385;DHT22;11865;45.394;10.978;2023-02-03T16:03:16;7.20;99.90
23385;DHT22;11865;45.394;10.978;2023-02-03T16:05:46;7.20;99.90
23385;DHT22;11865;45.394;10.978;2023-02-03T16:08:40;7.10;99.90
23385;DHT22;11865;45.394;10.978;2023-02-03T16:11:32;6.80;99.90
23385;DHT22;11865;45.394;10.978;2023-02-03T16:14:29;6.80;99.90
23385;DHT22;11865;45.394;10.978;2023-02-03T16:16:53;6.80;99.90
23385;DHT22;11865;45.394;10.978;2023-02-03T16:19:32;6.50;99.90
23385;DHT22;11865;45.394;10.978;2023-02-03T16:22:23;6.30;99.90
23385;DHT22;11865;45.394;10.978;2023-02-03T16:24:52;6.10;99.90
23385;DHT22;11865;45.394;10.978;2023-02-03T16:27:20;5.90;99.90
23385;DHT22;11865;45.394;10.978;2023-02-03T16:29:47;5.80;99.90
23385;DHT22;11865;45.394;10.978;2023-02-03T16:32:34;5.60;99.90
23385;DHT22;11865;45.394;10.978;2023-02-03T16:35:20;5.50;99.90
23385;DHT22;11865;45.394;10.978;2023-02-03T16:38:14;5.60;99.90
23385;DHT22;11865;45.394;10.978;2023-02-03T16:41:00;5.60;99.90
23385;DHT22;11865;45.394;10.978;2023-02-03T16:43:49;5.50;99.90
23385;DHT22;11865;45.394;10.978;2023-02-03T16:46:36;5.30;99.90
23385;DHT22;11865;45.394;10.978;2023-02-03T16:49:22;5.50;99.90
23385;DHT22;11865;45.394;10.978;2023-02-03T16:52:08;5.50;99.90
23385;DHT22;11865;45.394;10.978;2023-02-03T16:54:35;5.50;99.90
23385;DHT22;11865;45.394;10.978;2023-02-03T16:57:03;5.60;99.90
23385;DHT22;11865;45.394;10.978;2023-02-03T16:59:30;5.50;99.90
23385;DHT22;11865;45.394;10.978;2023-02-03T17:01:58;5.40;99.90
23385;DHT22;11865;45.394;10.978;2023-02-03T17:04:25;5.20;99.90
23385;DHT22;11865;45.394;10.978;2023-02-03T17:06:53;5.20;99.90
23385;DHT22;11865;45.394;10.978;2023-02-03T17:09:21;5.40;99.90
23385;DHT22;11865;45.394;10.978;2023-02-03T17:11:51;5.40;99.90
23385;DHT22;11865;45.394;10.978;2023-02-03T17:14:18;5.40;99.90
23385;DHT22;11865;45.394;10.978;2023-02-03T17:16:46;5.10;99.90
23385;DHT22;11865;45.394;10.978;2023-02-03T17:19:13;5.40;99.90
23385;DHT22;11865;45.394;10.978;2023-02-03T17:21:41;5.50;99.90
23385;DHT22;11865;45.394;10.978;2023-02-03T17:24:08;5.40;99.90
23385;DHT22;11865;45.394;10.978;2023-02-03T17:26:36;5.10;99.90
23385;DHT22;11865;45.394;10.978;2023-02-03T17:29:04;4.90;99.90
23385;DHT22;11865;45.394;10.978;2023-02-03T17:31:31;4.90;99.90
23385;DHT22;11865;45.394;10.978;2023-02-03T17:33:59;4.70;99.90
23385;DHT22;11865;45.394;10.978;2023-02-03T17:36:27;4.70;99.90
23385;DHT22;11865;45.394;10.978;2023-02-03T17:38:55;4.60;99.90
23385;DHT22;11865;45.394;10.978;2023-02-03T17:41:43;4.70;99.90
23385;DHT22;11865;45.394;10.978;2023-02-03T17:44:28;4.70;99.90
23385;DHT22;11865;45.394;10.978;2023-02-03T17:47:13;4.70;99.90
23385;DHT22;11865;45.394;10.978;2023-02-03T17:49:58;4.60;99.90
23385;DHT22;11865;45.394;10.978;2023-02-03T17:52:43;4.60;99.90
23385;DHT22;11865;45.394;10.978;2023-02-03T17:55:29;4.60;99.90
23385;DHT22;11865;45.394;10.978;2023-02-03T17:57:57;4.50;99.90
23385;DHT22;11865;45.394;10.978;2023-02-03T18:00:25;4.60;99.90
23385;DHT22;11865;45.394;10.978;2023-02-03T18:02:53;4.60;99.90
23385;DHT22;11865;45.394;10.978;2023-02-03T18:05:23;4.50;99.90
23385;DHT22;11865;45.394;10.978;2023-02-03T18:07:51;4.50;99.90
23385;DHT22;11865;45.394;10.978;2023-02-03T18:10:18;4.40;99.90
23385;DHT22;11865;45.394;10.978;2023-02-03T18:12:46;4.40;99.90
23385;DHT22;11865;45.394;10.978;2023-02-03T18:15:14;4.30;99.90
23385;DHT22;11865;45.394;10.978;2023-02-03T18:17:41;4.20;99.90
23385;DHT22;11865;45.394;10.978;2023-02-03T18:20:10;4.20;99.90
23385;DHT22;11865;45.394;10.978;2023-02-03T18:22:37;4.10;99.90
23385;DHT22;11865;45.394;10.978;2023-02-03T18:25:05;4.10;99.90
23385;DHT22;11865;45.394;10.978;2023-02-03T18:27:33;4.10;99.90
23385;DHT22;11865;45.394;10.978;2023-02-03T18:30:00;4.00;99.90
23385;DHT22;11865;45.394;10.978;2023-02-03T18:32:28;4.00;99.90
23385;DHT22;11865;45.394;10.978;2023-02-03T18:34:55;4.00;99.90